Time;durP1;ratioP1;P1;durP2;ratioP2;P2;SDS_P1;SDS_P2;PMS_P1;PMS_P2;Temp;Humidity;BMP_temperature;BMP_pressure;BME280_temperature;BME280_humidity;BME280_pressure;Samples;Min_cycle;Max_cycle;Signal;HPM_P1;HPM_P2
2023/04/07 00:02:16;;;;;;;13.93;7.40;;;7.40;99.90;;;;;;6267379;22;20014;-92
2023/04/07 00:04:42;;;;;;;13.93;7.33;;;7.30;99.90;;;;;;6267592;22;20022;-90
2023/04/07 00:07:08;;;;;;;13.43;7.53;;;7.30;99.90;;;;;;6241593;22;20025;-91
2023/04/07 00:09:34;;;;;;;15.37;8.20;;;7.30;99.90;;;;;;6241631;22;20054;-89
2023/04/07 00:12:02;;;;;;;15.37;7.93;;;7.40;99.90;;;;;;6242094;22;20094;-89
2023/04/07 00:14:28;;;;;;;13.50;7.15;;;7.40;99.90;;;;;;6266460;22;20097;-91
2023/04/07 00:19:38;;;;;;;13.65;7.13;;;7.40;99.90;;;;;;6401583;22;20022;-86
2023/04/07 00:22:04;;;;;;;12.48;7.32;;;7.40;99.90;;;;;;6401600;22;20021;-91
2023/04/07 00:24:29;;;;;;;13.67;7.63;;;7.30;99.90;;;;;;6240781;22;20045;-89
2023/04/07 00:26:55;;;;;;;13.13;7.30;;;7.40;99.90;;;;;;6402290;22;20018;-89
2023/04/07 00:29:21;;;;;;;15.50;8.07;;;7.40;99.90;;;;;;6401740;22;20010;-90
2023/04/07 00:31:47;;;;;;;14.80;8.37;;;7.40;99.90;;;;;;6266297;22;20106;-91
2023/04/07 00:34:12;;;;;;;14.60;7.87;;;7.40;99.90;;;;;;6401123;22;20014;-88
2023/04/07 00:36:51;;;;;;;16.40;8.07;;;7.40;99.90;;;;;;6267234;22;20411;-89
2023/04/07 00:39:32;;;;;;;14.30;7.28;;;7.30;99.90;;;;;;6241877;22;20439;-86
2023/04/07 00:41:58;;;;;;;15.98;8.05;;;7.40;99.90;;;;;;6266982;22;20021;-87
2023/04/07 00:44:23;;;;;;;12.93;7.40;;;7.30;99.90;;;;;;6191225;22;20010;-85
2023/04/07 00:46:49;;;;;;;15.23;8.30;;;7.40;99.90;;;;;;6241506;22;20112;-85
2023/04/07 00:49:16;;;;;;;13.40;7.80;;;7.30;99.90;;;;;;6216392;22;20010;-85
2023/04/07 00:51:42;;;;;;;16.23;7.57;;;7.30;99.90;;;;;;6241542;22;20042;-86
2023/04/07 00:54:09;;;;;;;15.60;8.00;;;7.40;99.90;;;;;;6216180;22;20104;-86
2023/04/07 00:56:35;;;;;;;;;;;7.40;99.90;;;;;;6267180;22;20098;-88
2023/04/07 00:59:03;;;;;;;15.43;7.82;;;7.30;99.90;;;;;;6217337;22;19914;-87
2023/04/07 01:01:41;;;;;;;15.32;8.30;;;7.30;99.90;;;;;;6217003;22;20047;-87
2023/04/07 01:04:17;;;;;;;16.45;8.15;;;7.30;99.90;;;;;;6242093;22;20018;-88
2023/04/07 01:06:47;;;;;;;15.48;8.13;;;7.30;99.90;;;;;;6241328;22;20014;-85
2023/04/07 01:12:26;;;;;;;14.60;7.55;;;7.30;99.90;;;;;;6242378;23;20020;-88
2023/04/07 01:14:58;;;;;;;14.20;8.00;;;7.30;99.90;;;;;;6257938;22;20063;-87
2023/04/07 01:17:26;;;;;;;15.93;8.32;;;7.30;99.90;;;;;;6234656;23;20020;-88
2023/04/07 01:19:57;;;;;;;14.93;7.80;;;7.30;99.90;;;;;;6245539;23;20046;-91
2023/04/07 01:22:32;;;;;;;16.15;7.82;;;7.30;99.90;;;;;;6241309;23;20111;-89
2023/04/07 01:25:22;;;;;;;13.73;7.80;;;7.30;99.90;;;;;;6216088;23;20012;-88
2023/04/07 01:28:34;;;;;;;14.70;7.90;;;7.30;99.90;;;;;;6215675;23;20125;-92
2023/04/07 01:31:33;;;;;;;13.93;7.78;;;7.30;99.90;;;;;;6215902;23;20104;-87
2023/04/07 01:34:09;;;;;;;;;;;7.30;99.90;;;;;;6242304;22;20055;-90
2023/04/07 01:36:35;;;;;;;14.15;7.80;;;7.30;99.90;;;;;;6216695;23;19924;-95
2023/04/07 01:39:01;;;;;;;18.47;8.70;;;7.30;99.90;;;;;;6216982;23;20326;-89
2023/04/07 01:41:29;;;;;;;14.02;7.70;;;7.20;99.90;;;;;;6241918;23;20385;-91
2023/04/07 01:44:03;;;;;;;15.68;7.50;;;7.20;99.90;;;;;;6241594;23;20024;-88
2023/04/07 01:46:29;;;;;;;17.60;8.32;;;7.30;99.90;;;;;;6240511;23;20047;-92
2023/04/07 01:48:55;;;;;;;15.63;8.33;;;7.20;99.90;;;;;;6241056;23;20361;-94
2023/04/07 01:51:22;;;;;;;;;;;7.20;99.90;;;;;;6216186;23;20024;-89
2023/04/07 01:53:49;;;;;;;15.57;7.93;;;7.30;99.90;;;;;;6242066;22;19923;-89
2023/04/07 01:56:15;;;;;;;13.52;7.38;;;7.20;99.90;;;;;;6215796;22;20045;-87
2023/04/07 01:58:41;;;;;;;15.65;8.45;;;7.20;99.90;;;;;;6241881;23;20016;-92
2023/04/07 02:01:07;;;;;;;16.47;8.43;;;7.20;99.90;;;;;;6324628;22;20035;-90
2023/04/07 02:03:45;;;;;;;16.83;8.57;;;7.20;99.90;;;;;;6352253;22;20035;-94
2023/04/07 02:06:18;;;;;;;19.15;8.48;;;7.20;99.90;;;;;;6350723;22;20020;-88
2023/04/07 02:08:47;;;;;;;15.85;8.73;;;7.20;99.90;;;;;;6245632;22;20080;-88
2023/04/07 02:11:17;;;;;;;16.77;8.50;;;7.20;99.90;;;;;;6324412;22;20091;-89
2023/04/07 02:13:44;;;;;;;16.65;8.20;;;7.20;99.90;;;;;;6349712;22;20098;-91
2023/04/07 02:16:16;;;;;;;16.85;8.85;;;7.20;99.90;;;;;;6325550;22;20087;-89
2023/04/07 02:18:44;;;;;;;14.70;8.13;;;7.20;99.90;;;;;;6350277;22;20529;-88
2023/04/07 02:21:11;;;;;;;17.13;8.82;;;7.20;99.90;;;;;;6350150;22;20068;-89
2023/04/07 02:23:37;;;;;;;15.60;8.15;;;7.20;99.90;;;;;;6349213;22;20088;-90
2023/04/07 02:26:03;;;;;;;16.53;8.40;;;7.20;99.90;;;;;;6242371;23;20020;-92
2023/04/07 02:28:28;;;;;;;19.20;9.07;;;7.20;99.90;;;;;;6349418;22;20051;-85
2023/04/07 02:30:54;;;;;;;15.80;8.20;;;7.20;99.90;;;;;;6244279;23;20016;-87
2023/04/07 02:33:20;;;;;;;17.63;8.40;;;7.20;99.90;;;;;;6349220;22;20053;-91
2023/04/07 02:35:46;;;;;;;17.30;8.90;;;7.10;99.90;;;;;;6242998;23;20102;-89
2023/04/07 02:38:11;;;;;;;16.03;8.40;;;7.20;99.90;;;;;;6242252;23;20045;-89
2023/04/07 02:40:37;;;;;;;16.90;8.87;;;7.20;99.90;;;;;;6242120;23;20429;-86
2023/04/07 02:43:04;;;;;;;14.67;7.70;;;7.20;99.90;;;;;;6348702;22;20046;-89
2023/04/07 02:45:30;;;;;;;14.88;7.72;;;7.20;99.90;;;;;;6322015;22;20106;-86
2023/04/07 02:47:55;;;;;;;15.75;8.63;;;7.20;99.90;;;;;;6348374;22;20070;-89
2023/04/07 02:50:21;;;;;;;16.93;8.67;;;7.20;99.90;;;;;;6348702;22;20020;-88
2023/04/07 02:52:47;;;;;;;18.73;8.67;;;7.10;99.90;;;;;;6242255;23;20043;-92
2023/04/07 02:55:12;;;;;;;14.07;7.40;;;7.20;99.90;;;;;;6216409;23;20099;-87
2023/04/07 02:57:38;;;;;;;15.70;8.00;;;7.10;99.90;;;;;;6241629;23;20017;-89
2023/04/07 03:00:04;;;;;;;16.57;9.03;;;7.10;99.90;;;;;;6243790;23;20129;-89
2023/04/07 03:02:30;;;;;;;15.95;8.55;;;7.10;99.90;;;;;;6241153;23;20091;-88
2023/04/07 03:04:56;;;;;;;15.60;8.77;;;7.10;99.90;;;;;;6215123;23;20031;-90
2023/04/07 03:07:21;;;;;;;14.27;8.37;;;7.10;99.90;;;;;;6190043;23;20449;-93
2023/04/07 03:09:47;;;;;;;15.73;8.30;;;7.10;99.90;;;;;;6240663;23;20020;-86
2023/04/07 03:12:13;;;;;;;15.37;8.33;;;7.10;99.90;;;;;;6388452;22;20017;-91
2023/04/07 03:14:39;;;;;;;15.63;9.07;;;7.10;99.90;;;;;;6375939;22;20334;-90
2023/04/07 03:17:05;;;;;;;14.67;8.23;;;7.10;99.90;;;;;;6403488;22;20500;-89
2023/04/07 03:19:30;;;;;;;14.18;8.20;;;7.10;99.90;;;;;;6374949;22;20461;-89
2023/04/07 03:21:56;;;;;;;15.23;8.53;;;7.10;99.90;;;;;;6403270;22;20018;-89
2023/04/07 03:24:22;;;;;;;14.93;8.23;;;7.00;99.90;;;;;;6375317;22;20016;-91
2023/04/07 03:26:47;;;;;;;13.90;8.07;;;7.00;99.90;;;;;;6374177;22;20146;-88
2023/04/07 03:29:13;;;;;;;15.97;8.60;;;7.10;99.90;;;;;;6373921;22;20454;-88
2023/04/07 03:31:39;;;;;;;15.40;8.17;;;7.10;99.90;;;;;;6402000;22;20025;-88
2023/04/07 03:34:04;;;;;;;15.53;8.47;;;7.00;99.90;;;;;;6374132;22;20093;-86
2023/04/07 03:36:30;;;;;;;15.93;9.33;;;7.00;99.90;;;;;;6373832;22;20049;-87
2023/04/07 03:38:56;;;;;;;14.83;8.47;;;7.10;99.90;;;;;;6374746;22;20166;-86
2023/04/07 03:41:22;;;;;;;15.13;8.63;;;7.00;99.90;;;;;;6404472;22;20101;-89
2023/04/07 03:43:48;;;;;;;16.43;8.60;;;7.00;99.90;;;;;;6418176;22;20018;-85
2023/04/07 03:46:14;;;;;;;16.60;8.67;;;7.00;99.90;;;;;;6418672;22;20042;-86
2023/04/07 03:48:40;;;;;;;13.65;8.25;;;7.00;99.90;;;;;;6380392;22;20093;-86
2023/04/07 03:51:06;;;;;;;15.80;8.37;;;7.00;99.90;;;;;;6374607;22;20022;-87
2023/04/07 03:53:32;;;;;;;15.27;7.97;;;7.00;99.90;;;;;;6373780;22;20260;-86
2023/04/07 03:55:58;;;;;;;16.83;9.27;;;7.00;99.90;;;;;;6373807;22;20017;-92
2023/04/07 03:58:23;;;;;;;15.52;8.25;;;7.00;99.90;;;;;;6402364;22;20016;-85
2023/04/07 04:00:49;;;;;;;14.60;8.50;;;7.00;99.90;;;;;;6349016;22;20013;-86
2023/04/07 04:03:15;;;;;;;18.13;9.43;;;7.00;99.90;;;;;;6402651;22;20066;-89
2023/04/07 04:05:40;;;;;;;16.03;8.67;;;7.00;99.90;;;;;;6375977;22;20022;-85
2023/04/07 04:08:06;;;;;;;16.63;8.33;;;7.00;99.90;;;;;;6376132;22;20022;-88
2023/04/07 04:10:32;;;;;;;15.83;8.47;;;7.00;99.90;;;;;;6375718;22;20025;-87
2023/04/07 04:12:59;;;;;;;15.43;8.33;;;7.00;99.90;;;;;;6374348;22;20014;-83
2023/04/07 04:15:28;;;;;;;13.15;7.72;;;7.00;99.90;;;;;;6348446;22;20017;-84
2023/04/07 04:17:54;;;;;;;15.25;7.43;;;7.00;99.90;;;;;;6346615;22;20021;-88
2023/04/07 04:20:21;;;;;;;16.20;8.70;;;7.00;99.90;;;;;;6346809;22;20014;-87
2023/04/07 04:22:46;;;;;;;15.20;8.48;;;7.00;99.90;;;;;;6372929;22;20014;-87
2023/04/07 04:25:12;;;;;;;16.37;8.30;;;7.00;99.90;;;;;;6399378;22;20123;-86
2023/04/07 04:27:38;;;;;;;14.67;8.20;;;7.00;99.90;;;;;;6373101;22;20013;-87
2023/04/07 04:30:04;;;;;;;14.10;7.73;;;7.00;99.90;;;;;;6373193;22;20025;-87
2023/04/07 04:32:30;;;;;;;15.65;8.02;;;7.00;99.90;;;;;;6373058;22;20014;-87
2023/04/07 04:34:55;;;;;;;13.33;7.60;;;7.00;99.90;;;;;;6373327;22;20013;-88
2023/04/07 04:37:21;;;;;;;16.13;7.60;;;7.00;99.90;;;;;;6401400;22;20014;-87
2023/04/07 04:39:47;;;;;;;13.70;7.67;;;7.00;99.90;;;;;;6373296;22;20049;-88
2023/04/07 04:42:12;;;;;;;15.63;8.03;;;7.00;99.90;;;;;;6373734;22;20021;-91
2023/04/07 04:44:38;;;;;;;16.00;8.60;;;7.00;99.90;;;;;;6373613;22;20028;-86
2023/04/07 04:47:04;;;;;;;13.40;7.37;;;7.00;99.90;;;;;;6347587;22;20014;-87
2023/04/07 04:49:30;;;;;;;16.50;8.50;;;7.00;99.90;;;;;;6401622;22;20018;-87
2023/04/07 04:51:56;;;;;;;15.65;7.65;;;7.00;99.90;;;;;;6373285;22;20040;-90
2023/04/07 04:54:21;;;;;;;14.63;7.53;;;7.00;99.90;;;;;;6401517;22;20018;-85
2023/04/07 04:56:47;;;;;;;14.23;8.63;;;7.00;99.90;;;;;;6375580;22;20433;-88
2023/04/07 04:59:13;;;;;;;16.70;8.40;;;6.90;99.90;;;;;;6348686;22;20018;-85
2023/04/07 05:01:39;;;;;;;15.53;8.17;;;6.90;99.90;;;;;;6374613;22;20009;-90
2023/04/07 05:04:05;;;;;;;14.90;7.80;;;7.00;99.90;;;;;;6373885;22;20018;-86
2023/04/07 05:06:31;;;;;;;15.87;7.47;;;7.00;99.90;;;;;;6374901;22;20033;-88
2023/04/07 05:08:57;;;;;;;14.75;7.88;;;7.00;99.90;;;;;;6401808;22;20017;-89
2023/04/07 05:11:22;;;;;;;14.80;7.83;;;7.00;99.90;;;;;;6401234;22;20520;-88
2023/04/07 05:13:48;;;;;;;13.77;7.63;;;6.90;99.90;;;;;;6402176;22;20013;-90
2023/04/07 05:16:14;;;;;;;14.60;8.53;;;7.00;99.90;;;;;;6374706;22;20021;-86
2023/04/07 05:18:40;;;;;;;13.97;7.90;;;7.00;99.90;;;;;;6375265;22;20042;-91
2023/04/07 05:21:06;;;;;;;13.73;8.10;;;6.90;99.90;;;;;;6376706;22;20032;-86
2023/04/07 05:23:31;;;;;;;13.90;7.90;;;6.90;99.90;;;;;;6352011;22;20047;-87
2023/04/07 05:25:57;;;;;;;16.07;8.20;;;6.90;99.90;;;;;;6378533;22;20021;-86
2023/04/07 05:28:24;;;;;;;14.47;8.27;;;6.90;99.90;;;;;;6403459;22;20050;-88
2023/04/07 05:30:50;;;;;;;14.52;7.57;;;6.90;99.90;;;;;;6402550;22;20014;-88
2023/04/07 05:33:15;;;;;;;17.10;8.30;;;6.90;99.90;;;;;;6375552;22;20104;-91
2023/04/07 05:35:44;;;;;;;18.60;8.13;;;6.90;99.90;;;;;;6376467;22;20010;-93
2023/04/07 05:38:10;;;;;;;15.00;7.72;;;6.90;99.90;;;;;;6401827;22;20489;-94
2023/04/07 05:40:36;;;;;;;14.95;7.72;;;6.90;99.90;;;;;;6375434;22;20020;-86
2023/04/07 05:43:02;;;;;;;16.63;8.50;;;6.90;99.90;;;;;;6375504;22;20014;-89
2023/04/07 05:45:46;;;;;;;14.17;7.40;;;6.90;99.90;;;;;;6349621;22;20061;-85
2023/04/07 05:48:12;;;;;;;14.40;7.75;;;6.90;99.90;;;;;;6348957;22;20050;-87
2023/04/07 05:50:38;;;;;;;12.87;7.03;;;6.90;99.90;;;;;;6373631;22;20018;-89
2023/04/07 05:53:03;;;;;;;13.53;7.87;;;6.90;99.90;;;;;;6372634;22;20009;-87
2023/04/07 05:55:30;;;;;;;15.23;7.23;;;6.90;99.90;;;;;;6375058;22;20021;-91
2023/04/07 05:58:05;;;;;;;15.63;8.40;;;6.90;99.90;;;;;;6348872;22;20032;-87
2023/04/07 06:00:58;;;;;;;16.00;7.75;;;6.90;99.90;;;;;;6379695;22;20018;-95
2023/04/07 06:03:30;;;;;;;14.75;7.75;;;6.90;99.90;;;;;;6360399;22;20155;-94
2023/04/07 06:06:01;;;;;;;14.48;7.57;;;6.90;99.90;;;;;;6252612;22;20024;-93
2023/04/07 06:08:27;;;;;;;16.80;9.05;;;7.00;99.90;;;;;;6228176;22;20027;-95
2023/04/07 06:10:53;;;;;;;16.40;9.20;;;6.90;99.90;;;;;;6209779;22;20094;-94
2023/04/07 06:13:25;;;;;;;16.42;8.30;;;6.90;99.90;;;;;;6200545;22;20016;-91
2023/04/07 06:16:05;;;;;;;;;;;6.90;99.90;;;;;;6222413;22;20500;-93
2023/04/07 06:18:33;;;;;;;14.23;8.13;;;6.90;99.90;;;;;;6222126;22;19915;-93
2023/04/07 06:20:59;;;;;;;16.33;8.38;;;7.00;99.90;;;;;;6221484;22;20012;-95
2023/04/07 06:23:32;;;;;;;13.97;8.43;;;6.90;99.90;;;;;;6222053;22;20022;-91
2023/04/07 06:25:58;;;;;;;17.90;8.85;;;7.00;99.90;;;;;;6196747;22;20448;-92
2023/04/07 06:28:24;;;;;;;13.67;7.80;;;7.00;99.90;;;;;;6195492;22;20045;-94
2023/04/07 06:30:50;;;;;;;16.53;8.23;;;7.00;99.90;;;;;;6251224;22;20014;-87
2023/04/07 06:33:15;;;;;;;16.87;9.00;;;7.00;99.90;;;;;;6348445;22;20369;-86
2023/04/07 06:35:41;;;;;;;17.87;8.80;;;7.00;99.90;;;;;;6349410;22;20013;-91
2023/04/07 06:38:07;;;;;;;17.47;9.27;;;7.10;99.90;;;;;;6403067;22;20065;-90
2023/04/07 06:40:39;;;;;;;17.93;9.30;;;7.00;99.90;;;;;;6375853;22;20017;-92
2023/04/07 06:43:05;;;;;;;16.17;8.98;;;7.10;99.90;;;;;;6348335;22;20474;-90
2023/04/07 06:45:30;;;;;;;17.30;8.80;;;7.10;99.90;;;;;;6347002;22;20010;-90
2023/04/07 06:47:56;;;;;;;15.50;8.77;;;7.10;99.90;;;;;;6375038;22;20251;-89
2023/04/07 06:50:22;;;;;;;18.97;9.87;;;7.20;99.90;;;;;;6376489;22;20020;-91
2023/04/07 06:52:48;;;;;;;16.77;9.00;;;7.20;99.90;;;;;;6350077;22;20078;-90
2023/04/07 06:55:33;;;;;;;16.30;8.50;;;7.20;99.90;;;;;;6403437;22;20017;-88
2023/04/07 06:59:17;;;;;;;17.13;9.27;;;7.20;99.90;;;;;;6322763;22;20049;-89
2023/04/07 07:02:06;;;;;;;18.42;9.65;;;7.30;99.90;;;;;;6251568;22;20502;-93
2023/04/07 07:04:38;;;;;;;17.75;8.77;;;7.30;99.90;;;;;;6223657;22;20011;-91
2023/04/07 07:07:04;;;;;;;17.80;9.82;;;7.40;99.90;;;;;;6323969;22;20024;-90
2023/04/07 07:09:33;;;;;;;16.00;8.83;;;7.40;99.90;;;;;;6324648;22;20010;-91
2023/04/07 07:12:01;;;;;;;17.27;8.85;;;7.50;99.90;;;;;;6325064;22;20073;-91
2023/04/07 07:14:29;;;;;;;16.63;9.13;;;7.50;99.90;;;;;;6349273;22;20075;-91
2023/04/07 07:16:58;;;;;;;15.00;8.00;;;7.50;99.90;;;;;;6326227;22;20014;-89
2023/04/07 07:19:27;;;;;;;16.43;8.83;;;7.60;99.90;;;;;;6324402;22;20014;-94
2023/04/07 07:29:58;;;;;;;17.08;8.55;;;7.70;99.90;;;;;;6401031;22;20018;-89
2023/04/07 07:32:23;;;;;;;18.20;9.83;;;7.70;99.90;;;;;;6219637;22;20457;-90
2023/04/07 07:34:49;;;;;;;19.10;10.83;;;7.80;99.90;;;;;;6222827;22;20069;-92
2023/04/07 07:37:15;;;;;;;18.87;11.27;;;7.80;99.90;;;;;;6246799;22;20086;-87
2023/04/07 07:39:40;;;;;;;21.47;10.97;;;7.80;99.90;;;;;;6246421;22;20012;-89
2023/04/07 07:42:06;;;;;;;20.33;9.83;;;7.80;99.90;;;;;;6245895;22;20092;-91
2023/04/07 07:44:32;;;;;;;19.43;10.73;;;7.90;99.90;;;;;;6220714;22;20012;-90
2023/04/07 07:46:58;;;;;;;21.00;10.60;;;7.90;99.90;;;;;;6245553;22;20022;-91
2023/04/07 07:49:23;;;;;;;20.60;11.30;;;7.90;99.90;;;;;;6169143;22;20011;-89
2023/04/07 07:51:49;;;;;;;17.07;9.57;;;7.80;99.90;;;;;;6194597;22;20047;-92
2023/04/07 07:54:15;;;;;;;18.23;10.83;;;7.80;99.90;;;;;;6220121;22;20049;-92
2023/04/07 07:56:51;;;;;;;20.83;11.60;;;7.90;99.90;;;;;;6245641;22;20095;-91
2023/04/07 07:59:17;;;;;;;22.77;11.93;;;7.80;99.90;;;;;;6220630;22;20099;-90
2023/04/07 08:01:43;;;;;;;24.17;12.70;;;7.80;99.90;;;;;;6247132;22;20047;-92
2023/04/07 08:04:08;;;;;;;23.87;12.17;;;7.80;99.90;;;;;;6195132;22;20023;-91
2023/04/07 08:06:35;;;;;;;22.07;11.67;;;7.80;99.90;;;;;;6194417;22;20076;-89
2023/04/07 08:09:01;;;;;;;22.95;12.05;;;7.80;99.90;;;;;;6245834;22;20016;-93
2023/04/07 08:11:27;;;;;;;21.93;11.77;;;7.80;99.90;;;;;;6246112;22;20369;-88
2023/04/07 08:14:02;;;;;;;22.05;12.10;;;7.90;99.90;;;;;;6246546;22;20052;-92
2023/04/07 08:19:03;;;;;;;20.55;11.05;;;7.90;99.90;;;;;;6386262;22;20025;-86
2023/04/07 08:21:32;;;;;;;20.37;11.93;;;7.80;99.90;;;;;;6172700;22;20023;-94
2023/04/07 08:23:57;;;;;;;24.45;10.70;;;7.90;99.90;;;;;;6197190;22;20321;-90
2023/04/07 08:26:26;;;;;;;20.83;11.50;;;8.00;99.90;;;;;;6246118;22;20011;-95
2023/04/07 08:28:52;;;;;;;19.52;11.25;;;8.00;99.90;;;;;;6245864;22;20027;-90
2023/04/07 08:31:18;;;;;;;19.80;11.00;;;8.00;99.90;;;;;;6247031;22;20007;-90
2023/04/07 08:33:45;;;;;;;18.88;10.35;;;8.10;99.90;;;;;;6245032;22;20034;-89
2023/04/07 08:36:11;;;;;;;19.30;11.27;;;8.20;99.90;;;;;;6196251;22;20012;-93
2023/04/07 08:38:37;;;;;;;21.58;11.00;;;8.20;99.90;;;;;;6196182;22;20045;-90
2023/04/07 08:41:20;;;;;;;20.47;11.93;;;8.30;99.90;;;;;;6246284;22;20015;-92
2023/04/07 08:43:59;;;;;;;20.30;10.13;;;8.30;99.90;;;;;;6219587;22;20015;-92
2023/04/07 08:46:26;;;;;;;20.13;10.07;;;8.40;99.90;;;;;;6221099;22;20011;-92
2023/04/07 08:48:54;;;;;;;18.95;11.02;;;8.40;99.90;;;;;;6196697;22;20019;-93
2023/04/07 08:51:33;;;;;;;18.35;10.25;;;8.40;99.90;;;;;;6219461;22;20016;-94
2023/04/07 08:54:13;;;;;;;17.95;9.20;;;8.50;99.90;;;;;;6220818;22;20020;-91
2023/04/07 08:57:03;;;;;;;18.92;9.60;;;8.60;99.90;;;;;;6221082;22;20020;-90
2023/04/07 09:02:18;;;;;;;19.20;9.82;;;8.70;99.90;;;;;;6225628;22;20103;-89
2023/04/07 09:04:44;;;;;;;16.95;9.18;;;8.80;99.90;;;;;;6221649;22;20015;-88
2023/04/07 09:07:10;;;;;;;15.95;9.10;;;8.80;99.90;;;;;;6197064;22;20008;-89
2023/04/07 09:09:36;;;;;;;18.93;9.80;;;8.90;99.90;;;;;;6197103;22;20038;-90
2023/04/07 09:12:02;;;;;;;16.17;9.30;;;9.00;99.90;;;;;;6196937;22;20092;-93
2023/04/07 09:14:30;;;;;;;14.50;8.80;;;9.10;99.90;;;;;;6196497;22;20062;-90
2023/04/07 09:16:56;;;;;;;18.30;9.15;;;9.10;99.90;;;;;;6221381;22;20345;-90
2023/04/07 09:19:26;;;;;;;15.60;8.13;;;9.20;99.90;;;;;;6221190;22;20016;-94
2023/04/07 09:21:52;;;;;;;12.75;7.28;;;9.30;99.90;;;;;;6221361;22;20051;-89
2023/04/07 09:24:24;;;;;;;14.50;8.30;;;9.40;99.90;;;;;;6221954;22;20012;-93
2023/04/07 09:26:50;;;;;;;14.85;8.20;;;9.60;99.90;;;;;;6220968;22;20022;-93
2023/04/07 09:29:19;;;;;;;16.50;8.18;;;9.70;99.90;;;;;;6221557;22;20020;-89
2023/04/07 09:31:49;;;;;;;12.90;7.38;;;9.80;99.90;;;;;;6221490;22;20012;-88
2023/04/07 09:34:29;;;;;;;14.32;7.63;;;9.80;99.90;;;;;;6246019;22;20019;-92
2023/04/07 09:36:56;;;;;;;12.95;7.40;;;10.00;99.90;;;;;;6246091;22;20015;-92
2023/04/07 09:39:22;;;;;;;13.55;7.47;;;10.10;99.90;;;;;;6246388;22;20020;-92
2023/04/07 09:41:48;;;;;;;12.75;7.15;;;10.20;99.90;;;;;;6220163;22;20445;-90
2023/04/07 09:44:14;;;;;;;13.77;7.30;;;10.20;99.90;;;;;;6221316;22;20020;-91
2023/04/07 09:46:55;;;;;;;12.55;6.72;;;10.20;99.90;;;;;;6217653;22;20082;-88
2023/04/07 09:49:23;;;;;;;13.75;6.85;;;10.30;99.90;;;;;;6219469;22;20020;-89
2023/04/07 09:51:56;;;;;;;12.25;6.20;;;10.20;99.90;;;;;;6219816;22;20068;-87
2023/04/07 09:54:36;;;;;;;11.18;6.25;;;10.20;99.90;;;;;;6220746;22;20056;-88
2023/04/07 09:57:03;;;;;;;11.07;6.07;;;10.20;99.90;;;;;;6220971;22;20372;-86
2023/04/07 09:59:30;;;;;;;11.93;6.60;;;10.20;99.90;;;;;;6219979;22;20470;-87
2023/04/07 10:01:56;;;;;;;;;;;10.20;99.90;;;;;;6245448;22;20012;-86
2023/04/07 10:04:23;;;;;;;12.23;5.80;;;10.20;99.90;;;;;;6220686;22;19998;-87
2023/04/07 10:06:50;;;;;;;10.32;6.05;;;10.20;99.90;;;;;;6245895;22;20043;-87
2023/04/07 10:09:16;;;;;;;11.80;6.20;;;10.20;99.90;;;;;;6220183;22;20349;-87
2023/04/07 10:11:43;;;;;;;10.18;5.65;;;10.10;99.90;;;;;;6220614;22;20487;-87
2023/04/07 10:14:10;;;;;;;12.75;6.32;;;10.10;99.90;;;;;;6245508;22;20022;-87
2023/04/07 10:16:40;;;;;;;;;;;10.10;99.90;;;;;;6220811;22;20012;-90
2023/04/07 10:19:06;;;;;;;10.70;5.50;;;10.20;99.90;;;;;;6220441;22;19915;-87
2023/04/07 10:21:38;;;;;;;10.35;5.97;;;10.20;99.90;;;;;;6220243;22;20098;-87
2023/04/07 10:24:08;;;;;;;11.38;6.18;;;10.20;99.90;;;;;;6218423;22;20065;-88
2023/04/07 10:26:35;;;;;;;11.68;5.93;;;10.30;99.90;;;;;;6220277;22;20019;-88
2023/04/07 10:29:10;;;;;;;11.48;6.57;;;10.20;99.90;;;;;;6220376;22;20016;-85
2023/04/07 10:31:38;;;;;;;11.73;6.25;;;10.30;99.90;;;;;;6220212;22;20068;-88
2023/04/07 10:34:04;;;;;;;11.88;6.45;;;10.30;99.90;;;;;;6220128;22;20089;-91
2023/04/07 10:36:30;;;;;;;11.57;6.53;;;10.40;99.90;;;;;;6220572;22;20072;-90
2023/04/07 10:39:08;;;;;;;12.20;6.57;;;10.50;99.90;;;;;;6220954;22;20020;-88
2023/04/07 10:41:38;;;;;;;10.00;5.78;;;10.50;99.90;;;;;;6220560;22;20251;-88
2023/04/07 10:44:10;;;;;;;13.77;6.32;;;10.70;99.90;;;;;;6196033;22;20022;-88
2023/04/07 10:46:47;;;;;;;10.85;5.53;;;10.80;99.90;;;;;;6220596;22;20012;-90
2023/04/07 10:49:15;;;;;;;9.77;5.72;;;10.90;99.90;;;;;;6220597;22;20041;-88
2023/04/07 10:51:41;;;;;;;10.38;5.70;;;11.00;99.90;;;;;;6219545;22;20015;-86
2023/04/07 10:54:21;;;;;;;11.18;5.63;;;10.90;99.90;;;;;;6218656;22;20020;-88
2023/04/07 10:57:01;;;;;;;9.10;5.00;;;11.00;99.90;;;;;;6220645;22;20023;-88
2023/04/07 10:59:31;;;;;;;8.20;4.60;;;11.20;99.90;;;;;;6220449;22;20027;-89
2023/04/07 11:02:11;;;;;;;9.18;4.60;;;11.20;99.90;;;;;;6220727;22;20015;-88
2023/04/07 11:04:41;;;;;;;9.05;4.70;;;11.40;99.90;;;;;;6245775;22;20028;-88
2023/04/07 11:07:08;;;;;;;7.75;4.43;;;11.40;99.90;;;;;;6220614;22;20095;-90
2023/04/07 11:09:34;;;;;;;9.10;4.68;;;11.40;99.90;;;;;;6220655;22;20052;-94
2023/04/07 11:12:00;;;;;;;7.60;3.97;;;11.40;99.90;;;;;;6221758;22;20034;-87
2023/04/07 11:14:30;;;;;;;7.03;3.93;;;11.40;99.90;;;;;;6246879;22;20020;-85
2023/04/07 11:16:57;;;;;;;8.10;4.43;;;11.40;99.90;;;;;;6245601;22;20054;-84
2023/04/07 11:19:23;;;;;;;7.68;4.55;;;11.40;99.90;;;;;;6272772;22;20094;-86
2023/04/07 11:21:48;;;;;;;8.05;4.18;;;11.40;99.90;;;;;;6245368;22;20440;-88
2023/04/07 11:24:33;;;;;;;9.40;4.77;;;11.40;99.90;;;;;;6272007;22;20026;-81
2023/04/07 11:27:00;;;;;;;7.70;3.97;;;11.40;99.90;;;;;;6245393;22;20019;-81
2023/04/07 11:29:33;;;;;;;7.60;4.28;;;11.30;99.90;;;;;;6245991;22;20475;-84
2023/04/07 11:32:01;;;;;;;10.02;4.60;;;11.40;99.90;;;;;;6220422;22;20019;-82
2023/04/07 11:34:35;;;;;;;10.23;5.38;;;11.30;99.90;;;;;;6195430;22;20042;-85
2023/04/07 11:37:22;;;;;;;7.93;4.47;;;11.30;99.90;;;;;;6195194;22;20070;-90
2023/04/07 11:39:56;;;;;;;9.20;5.13;;;11.30;99.90;;;;;;6244828;22;20124;-81
2023/04/07 11:42:35;;;;;;;7.97;4.75;;;11.40;99.90;;;;;;6220536;22;20022;-82
2023/04/07 11:45:20;;;;;;;11.10;5.32;;;11.40;99.90;;;;;;6196947;22;20019;-88
2023/04/07 11:47:50;;;;;;;8.95;4.38;;;11.50;99.90;;;;;;6222054;22;20375;-86
2023/04/07 11:50:16;;;;;;;10.35;5.22;;;11.50;99.90;;;;;;6247911;22;20128;-90
2023/04/07 11:52:43;;;;;;;8.60;4.70;;;11.70;99.90;;;;;;6195944;22;20045;-84
2023/04/07 11:55:25;;;;;;;8.52;4.30;;;11.70;99.90;;;;;;6196316;22;20060;-88
2023/04/07 11:57:51;;;;;;;9.07;4.63;;;11.80;99.90;;;;;;6219043;22;20020;-87
2023/04/07 12:00:30;;;;;;;7.57;4.00;;;12.10;99.90;;;;;;6220924;22;20023;-87
2023/04/07 12:02:56;;;;;;;8.77;4.45;;;12.30;99.90;;;;;;6245298;22;20016;-86
2023/04/07 12:05:23;;;;;;;9.93;5.47;;;12.40;99.90;;;;;;6271747;22;20015;-85
2023/04/07 12:07:57;;;;;;;10.57;4.55;;;12.40;99.90;;;;;;6244016;22;20265;-85
2023/04/07 12:10:35;;;;;;;8.50;4.32;;;12.40;99.90;;;;;;6193660;22;20020;-84
2023/04/07 12:13:21;;;;;;;7.97;4.88;;;12.40;99.90;;;;;;6269395;22;20026;-85
2023/04/07 12:18:15;;;;;;;9.63;5.17;;;12.30;99.90;;;;;;6395640;22;20028;-86
2023/04/07 12:20:41;;;;;;;8.65;4.55;;;12.30;99.90;;;;;;6220238;22;20099;-85
2023/04/07 12:23:06;;;;;;;7.53;4.50;;;12.40;99.90;;;;;;6169794;22;20043;-85
2023/04/07 12:25:32;;;;;;;8.80;4.30;;;12.50;99.90;;;;;;6218570;22;20015;-83
2023/04/07 12:27:57;;;;;;;8.13;4.60;;;12.40;99.90;;;;;;6325480;22;20012;-85
2023/04/07 12:30:23;;;;;;;8.27;4.40;;;12.40;99.90;;;;;;6219311;22;20340;-83
2023/04/07 12:33:09;;;;;;;;;;;;;;;;;;;;;
2023/04/07 12:35:40;;;;;;;7.85;4.57;;;12.70;99.90;;;;;;6241815;22;20042;-84
2023/04/07 12:41:11;;;;;;;9.10;5.13;;;13.00;99.90;;;;;;6400711;22;20388;-83
2023/04/07 12:43:40;;;;;;;8.00;4.77;;;13.10;99.90;;;;;;6219347;22;20024;-82
2023/04/07 12:46:15;;;;;;;8.85;4.85;;;13.10;99.90;;;;;;6243906;22;20250;-83
2023/04/07 12:49:11;;;;;;;9.50;5.70;;;13.10;99.90;;;;;;6219142;22;20020;-83
2023/04/07 12:51:38;;;;;;;8.18;4.80;;;13.10;99.90;;;;;;6224541;22;20012;-82
2023/04/07 12:54:04;;;;;;;10.57;4.80;;;13.10;99.90;;;;;;6244126;22;20538;-83
2023/04/07 12:56:30;;;;;;;9.50;5.33;;;13.20;99.90;;;;;;6218968;22;20024;-82
2023/04/07 12:59:02;;;;;;;8.25;4.72;;;13.40;99.90;;;;;;6242609;22;20568;-83
2023/04/07 13:01:28;;;;;;;8.98;5.30;;;13.50;99.90;;;;;;6209750;22;20012;-83
2023/04/07 13:03:54;;;;;;;10.40;4.90;;;13.70;99.90;;;;;;6260930;22;20120;-82
2023/04/07 13:06:21;;;;;;;9.52;4.90;;;13.90;99.90;;;;;;6185522;23;20275;-81
2023/04/07 13:08:46;;;;;;;8.80;5.05;;;14.20;99.90;;;;;;6212245;23;20314;-84
2023/04/07 13:11:18;;;;;;;9.43;5.13;;;14.40;99.90;;;;;;6213867;23;20008;-84
2023/04/07 13:13:44;;;;;;;8.68;4.88;;;14.60;99.90;;;;;;6213808;23;20068;-82
2023/04/07 13:16:10;;;;;;;8.63;4.83;;;14.50;99.90;;;;;;6213918;23;20016;-84
2023/04/07 13:18:35;;;;;;;7.97;4.82;;;14.40;99.90;;;;;;6190267;23;20251;-82
2023/04/07 13:21:01;;;;;;;8.07;4.23;;;14.30;99.90;;;;;;6215259;23;20095;-83
2023/04/07 13:23:27;;;;;;;8.13;4.80;;;14.10;99.90;;;;;;6215286;23;20024;-85